Terminal Aerodrome Forecast
Issued by NWS

Home | Current Version | Previous Version | Text Only | Print | Product List | Glossary On
Versions: 1 2 3 4 5 6 7 8 9 10 11 12 13 14
456
FTUS46 KSEW 210540
TAFOLM
TAF
KOLM 210540Z 2106/2206 21006KT P6SM SCT040 BKN070
     FM210900 21006KT P6SM SCT070
     FM211200 00000KT P6SM BKN012 BKN020
     FM211700 23006KT P6SM SCT040
     FM212300 36006KT P6SM SCT050=

USA.gov is the U.S. government's official web portal to all federal, state and local government web resources and services.